Time;durP1;ratioP1;P1;durP2;ratioP2;P2;SDS_P1;SDS_P2;PMS_P1;PMS_P2;Temp;Humidity;BMP_temperature;BMP_pressure;BME280_temperature;BME280_humidity;BME280_pressure;Samples;Min_cycle;Max_cycle;Signal;HPM_P1;HPM_P2
2022/09/21 00:01:32;;;;;;;5.65;2.17;;;7.70;89.00;;;;;;5031154;28;20052;-44
2022/09/21 00:04:02;;;;;;;6.05;3.35;;;7.80;89.10;;;;;;5031290;28;20025;-43
2022/09/21 00:06:30;;;;;;;;;;;7.70;89.10;;;;;;5031749;28;20044;-42
2022/09/21 00:08:57;;;;;;;6.80;2.95;;;7.70;89.20;;;;;;5031372;28;19948;-45
2022/09/21 00:11:27;;;;;;;6.97;3.33;;;7.70;89.10;;;;;;5029137;28;20450;-42
2022/09/21 00:13:59;;;;;;;5.53;2.53;;;7.60;89.20;;;;;;5030705;28;20473;-44
2022/09/21 00:16:27;;;;;;;5.97;3.00;;;7.70;89.40;;;;;;5030120;28;20061;-43
2022/09/21 00:18:54;;;;;;;7.63;3.30;;;7.70;89.40;;;;;;5013244;28;20509;-43
2022/09/21 00:21:21;;;;;;;6.10;2.90;;;7.60;89.40;;;;;;5012288;28;20098;-44
2022/09/21 00:23:48;;;;;;;7.50;2.92;;;7.70;89.50;;;;;;5031273;28;20025;-42
2022/09/21 00:26:20;;;;;;;7.28;2.75;;;7.70;89.50;;;;;;5011070;28;20057;-44
2022/09/21 00:28:56;;;;;;;3.90;2.42;;;7.60;89.30;;;;;;5013257;28;20053;-43
2022/09/21 00:31:21;;;;;;;5.32;2.70;;;7.60;89.30;;;;;;5012346;28;20362;-45
2022/09/21 00:33:49;;;;;;;7.30;2.85;;;7.60;89.10;;;;;;5013197;28;20029;-43
2022/09/21 00:36:18;;;;;;;5.22;2.92;;;7.50;89.10;;;;;;5030616;28;20017;-43
2022/09/21 00:38:52;;;;;;;9.02;3.50;;;7.50;89.20;;;;;;5030411;28;20091;-43
2022/09/21 00:41:19;;;;;;;6.57;2.90;;;7.50;89.40;;;;;;5027659;28;20105;-44
2022/09/21 00:44:12;;;;;;;5.95;2.83;;;7.50;89.50;;;;;;5030170;28;20037;-43
2022/09/21 00:46:39;;;;;;;4.45;2.60;;;7.50;89.50;;;;;;5029908;28;20088;-42
2022/09/21 00:49:11;;;;;;;8.13;2.72;;;7.50;89.50;;;;;;5029805;28;20111;-45
2022/09/21 00:51:38;;;;;;;4.60;2.55;;;7.40;89.40;;;;;;5028898;28;20033;-42
2022/09/21 00:54:11;;;;;;;7.93;2.72;;;7.40;89.30;;;;;;5029720;28;20408;-43
2022/09/21 00:56:37;;;;;;;3.97;2.50;;;7.40;89.40;;;;;;5010998;28;20025;-42
2022/09/21 00:59:05;;;;;;;4.50;2.47;;;7.40;89.40;;;;;;5029726;28;20025;-43
2022/09/21 01:01:33;;;;;;;5.13;2.95;;;7.40;89.30;;;;;;5012075;28;20044;-43
2022/09/21 01:04:00;;;;;;;5.03;2.28;;;7.40;89.40;;;;;;5029522;28;20101;-44
2022/09/21 01:06:33;;;;;;;5.72;2.67;;;7.40;89.40;;;;;;5028786;28;20047;-43
2022/09/21 01:09:07;;;;;;;6.05;3.00;;;7.40;89.50;;;;;;5026907;28;20292;-43
2022/09/21 01:12:03;;;;;;;7.10;2.60;;;7.40;89.60;;;;;;5027445;28;20033;-43
2022/09/21 01:14:52;;;;;;;6.32;2.80;;;7.40;89.60;;;;;;4979484;28;20041;-43
2022/09/21 01:17:47;;;;;;;5.90;3.47;;;7.40;89.60;;;;;;5009690;28;20037;-44
2022/09/21 01:20:45;;;;;;;6.75;2.40;;;7.40;89.60;;;;;;5029219;28;20055;-43
2022/09/21 01:23:57;;;;;;;4.25;2.83;;;7.40;89.70;;;;;;5011907;28;20466;-44
2022/09/21 01:26:42;;;;;;;6.25;2.83;;;7.40;89.70;;;;;;5028060;28;20097;-43
2022/09/21 01:29:33;;;;;;;7.40;3.17;;;7.40;89.70;;;;;;5009798;28;20033;-43
2022/09/21 01:32:04;;;;;;;7.50;2.83;;;7.40;89.80;;;;;;5009231;28;20482;-45
2022/09/21 01:35:04;;;;;;;5.68;2.50;;;7.30;89.70;;;;;;5009675;28;20399;-43
2022/09/21 01:37:46;;;;;;;3.40;2.08;;;7.30;89.70;;;;;;5010482;28;20030;-43
2022/09/21 01:40:24;;;;;;;4.63;2.40;;;7.30;89.90;;;;;;5029080;28;20021;-43
2022/09/21 01:42:54;;;;;;;3.67;2.55;;;7.20;89.70;;;;;;5010396;28;20128;-46
2022/09/21 01:45:26;;;;;;;;;;;7.20;89.70;;;;;;5029579;28;20450;-43
2022/09/21 01:47:56;;;;;;;5.97;2.50;;;7.10;89.90;;;;;;5011156;28;20021;-45
2022/09/21 01:50:25;;;;;;;9.43;2.28;;;7.20;89.70;;;;;;5011046;28;20358;-44
2022/09/21 01:53:16;;;;;;;3.80;2.13;;;7.10;89.70;;;;;;5027727;28;20037;-44
2022/09/21 01:55:52;;;;;;;8.20;2.63;;;7.10;89.50;;;;;;5028705;28;20124;-43
2022/09/21 01:58:52;;;;;;;4.10;2.40;;;7.00;89.30;;;;;;5026800;28;20127;-44
2022/09/21 02:01:21;;;;;;;5.68;2.40;;;7.00;89.20;;;;;;5028916;28;20446;-44
2022/09/21 02:03:53;;;;;;;;;;;7.00;89.40;;;;;;5010564;28;20038;-44
2022/09/21 02:06:20;;;;;;;6.22;2.75;;;7.00;89.50;;;;;;5028827;28;19997;-44
2022/09/21 02:08:47;;;;;;;4.53;2.33;;;7.00;89.50;;;;;;5028809;28;20021;-45
2022/09/21 02:11:14;;;;;;;7.80;2.40;;;7.00;89.70;;;;;;5029500;28;20064;-44
2022/09/21 02:13:47;;;;;;;4.00;2.83;;;7.00;89.60;;;;;;5007694;28;20061;-44
2022/09/21 02:16:43;;;;;;;5.10;2.83;;;6.90;89.40;;;;;;5009865;28;20037;-43
2022/09/21 02:19:43;;;;;;;7.55;2.75;;;7.00;89.70;;;;;;5011851;28;20037;-43
2022/09/21 02:22:58;;;;;;;5.85;2.35;;;7.00;89.80;;;;;;5010399;28;20047;-43
2022/09/21 02:25:45;;;;;;;4.90;3.05;;;7.00;89.90;;;;;;4969193;28;20033;-46
2022/09/21 02:28:32;;;;;;;6.53;2.63;;;7.00;89.90;;;;;;5011210;28;20026;-42
2022/09/21 02:31:43;;;;;;;4.95;2.03;;;7.10;89.70;;;;;;4992247;28;20503;-43
2022/09/21 02:34:32;;;;;;;5.50;2.45;;;7.10;89.50;;;;;;5009161;28;20038;-44
2022/09/21 02:37:18;;;;;;;3.97;2.07;;;7.00;89.50;;;;;;4992378;28;20041;-44
2022/09/21 02:40:11;;;;;;;7.03;2.40;;;7.00;89.50;;;;;;5019457;28;20037;-44
2022/09/21 02:42:45;;;;;;;5.07;2.08;;;7.00;89.50;;;;;;5026757;28;20046;-44
2022/09/21 02:45:32;;;;;;;4.45;2.00;;;7.00;89.50;;;;;;5009327;28;20022;-45
2022/09/21 02:48:10;;;;;;;5.40;2.65;;;7.00;89.60;;;;;;5009115;28;20042;-45
2022/09/21 02:50:45;;;;;;;5.87;2.83;;;7.00;89.60;;;;;;5004694;28;20114;-45
2022/09/21 02:53:15;;;;;;;7.57;2.50;;;7.10;89.70;;;;;;5008640;28;20451;-45
2022/09/21 02:55:45;;;;;;;7.93;2.78;;;7.10;89.70;;;;;;5009395;28;20084;-46
2022/09/21 02:58:15;;;;;;;9.02;2.85;;;7.00;89.60;;;;;;5013920;28;20034;-44
2022/09/21 03:00:41;;;;;;;5.22;1.95;;;7.00;89.50;;;;;;5028654;28;20437;-48
2022/09/21 03:03:19;;;;;;;5.97;2.60;;;7.00;89.60;;;;;;5029614;28;20040;-44
2022/09/21 03:05:49;;;;;;;8.52;2.70;;;7.00;89.70;;;;;;5032249;28;20033;-44
2022/09/21 03:08:17;;;;;;;5.78;2.67;;;7.00;89.80;;;;;;5030780;28;20060;-44
2022/09/21 03:10:43;;;;;;;6.22;2.78;;;7.00;89.70;;;;;;5014710;28;20477;-45
2022/09/21 03:13:09;;;;;;;6.68;2.63;;;7.00;89.80;;;;;;5030263;28;20101;-42
2022/09/21 03:15:37;;;;;;;4.90;2.60;;;6.90;89.80;;;;;;5032141;28;20052;-45
2022/09/21 03:18:08;;;;;;;3.67;2.45;;;6.90;89.70;;;;;;5032234;28;20037;-47
2022/09/21 03:20:35;;;;;;;5.15;2.97;;;6.90;89.70;;;;;;5032052;28;20034;-44
2022/09/21 03:23:06;;;;;;;6.00;2.40;;;6.90;89.70;;;;;;5013679;28;20070;-46
2022/09/21 03:25:33;;;;;;;3.17;1.63;;;6.90;89.70;;;;;;5029970;28;20032;-45
2022/09/21 03:28:00;;;;;;;6.03;2.55;;;6.90;89.70;;;;;;5032172;28;20022;-45
2022/09/21 03:30:27;;;;;;;5.35;2.35;;;6.90;89.50;;;;;;5029416;28;20026;-47
2022/09/21 03:32:55;;;;;;;2.90;1.80;;;6.90;89.60;;;;;;5031569;28;20025;-44
2022/09/21 03:35:24;;;;;;;6.65;2.20;;;6.80;89.60;;;;;;5030491;28;20037;-43
2022/09/21 03:37:51;;;;;;;6.95;2.58;;;6.80;89.60;;;;;;5031549;28;20474;-43
2022/09/21 03:40:18;;;;;;;5.13;2.08;;;6.80;89.80;;;;;;5014163;28;20083;-47
2022/09/21 03:42:45;;;;;;;6.22;2.40;;;6.80;89.60;;;;;;5013685;28;20130;-46
2022/09/21 03:45:12;;;;;;;6.28;2.40;;;6.80;89.60;;;;;;5030265;28;20363;-44
2022/09/21 03:47:39;;;;;;;4.35;2.22;;;6.80;89.70;;;;;;5031458;28;20056;-44
2022/09/21 03:50:07;;;;;;;4.90;2.17;;;6.80;89.70;;;;;;5031607;28;20046;-46
2022/09/21 03:52:36;;;;;;;4.97;2.60;;;6.80;89.80;;;;;;5014170;28;20033;-43
2022/09/21 03:55:08;;;;;;;3.85;2.45;;;6.80;89.80;;;;;;5030423;28;20053;-44
2022/09/21 03:57:35;;;;;;;5.53;2.85;;;6.90;89.80;;;;;;5031116;28;20477;-44
2022/09/21 04:00:05;;;;;;;6.32;2.63;;;6.90;89.80;;;;;;5028962;28;20041;-43
2022/09/21 04:02:32;;;;;;;3.63;1.95;;;6.80;89.70;;;;;;5031178;28;20033;-44
2022/09/21 04:04:58;;;;;;;3.95;2.17;;;6.80;89.60;;;;;;5029452;28;20462;-46
2022/09/21 04:07:29;;;;;;;3.55;1.80;;;6.80;89.50;;;;;;5031221;28;20474;-46
2022/09/21 04:09:55;;;;;;;4.05;1.98;;;6.80;89.50;;;;;;5030995;28;20366;-43
2022/09/21 04:12:22;;;;;;;4.28;2.50;;;6.80;89.70;;;;;;5031086;28;20033;-43
2022/09/21 04:14:49;;;;;;;4.40;2.10;;;6.80;89.80;;;;;;5008814;28;20040;-45
2022/09/21 04:17:17;;;;;;;5.30;2.95;;;6.80;89.80;;;;;;5011287;28;20105;-45
2022/09/21 04:19:47;;;;;;;3.95;2.63;;;6.80;89.80;;;;;;5011380;28;20024;-45
2022/09/21 04:22:14;;;;;;;5.25;3.03;;;6.80;90.00;;;;;;5011170;28;20034;-43
2022/09/21 04:24:41;;;;;;;4.28;2.58;;;6.90;89.90;;;;;;5007257;28;20037;-45
2022/09/21 04:27:09;;;;;;;6.03;2.30;;;6.80;89.80;;;;;;5031011;28;20025;-49
2022/09/21 04:29:39;;;;;;;4.57;2.00;;;6.80;89.80;;;;;;5012264;28;20125;-44
2022/09/21 04:32:06;;;;;;;6.65;3.00;;;6.80;89.80;;;;;;5013757;28;20056;-43
2022/09/21 04:34:33;;;;;;;7.10;2.63;;;6.70;89.90;;;;;;5012290;28;20033;-48
2022/09/21 04:37:00;;;;;;;10.18;2.58;;;6.70;90.00;;;;;;5030800;28;20034;-45
2022/09/21 04:39:27;;;;;;;7.22;2.60;;;6.80;90.10;;;;;;5031104;28;20047;-45
2022/09/21 04:41:53;;;;;;;6.20;2.33;;;6.70;90.10;;;;;;5030443;28;20529;-45
2022/09/21 04:44:18;;;;;;;6.93;2.08;;;6.70;90.00;;;;;;5029817;28;20096;-45
2022/09/21 04:46:45;;;;;;;3.97;2.17;;;6.70;90.10;;;;;;5030230;28;20160;-45
2022/09/21 04:49:12;;;;;;;6.28;2.75;;;6.70;89.80;;;;;;5030381;28;20029;-43
2022/09/21 04:51:39;;;;;;;5.20;2.35;;;6.60;89.90;;;;;;5013030;28;20022;-46
2022/09/21 04:54:06;;;;;;;6.25;2.80;;;6.60;89.90;;;;;;5029458;28;20032;-45
2022/09/21 04:56:33;;;;;;;4.07;2.10;;;6.60;89.90;;;;;;5030036;28;20124;-44
2022/09/21 04:59:00;;;;;;;4.22;2.15;;;6.60;89.70;;;;;;5028128;28;20025;-43
2022/09/21 05:01:27;;;;;;;4.13;2.47;;;6.50;89.50;;;;;;5029970;28;20025;-47
2022/09/21 05:03:57;;;;;;;4.03;2.42;;;6.50;89.70;;;;;;5029095;28;20036;-46
2022/09/21 05:06:24;;;;;;;;;;;6.50;89.60;;;;;;5030790;28;20342;-44
2022/09/21 05:11:35;;;;;;;4.13;2.30;;;6.50;89.60;;;;;;5030114;28;20109;-46
2022/09/21 05:14:02;;;;;;;5.60;3.00;;;6.50;89.70;;;;;;5012032;28;20025;-44
2022/09/21 05:16:28;;;;;;;6.72;2.40;;;6.50;89.80;;;;;;5030102;28;20071;-45
2022/09/21 05:18:55;;;;;;;6.68;2.65;;;6.50;90.00;;;;;;5012290;28;20415;-46
2022/09/21 05:21:22;;;;;;;6.70;2.53;;;6.50;89.90;;;;;;5012186;28;20041;-45
2022/09/21 05:23:49;;;;;;;4.78;2.53;;;6.50;89.90;;;;;;5011654;28;20100;-46
2022/09/21 05:26:19;;;;;;;5.25;2.22;;;6.50;89.90;;;;;;5028965;28;20075;-48
2022/09/21 05:28:46;;;;;;;4.55;2.28;;;6.60;89.90;;;;;;5010011;28;20427;-48
2022/09/21 05:31:36;;;;;;;4.53;2.47;;;6.60;89.90;;;;;;5029659;28;20048;-47
2022/09/21 05:34:29;;;;;;;5.45;2.85;;;6.60;90.10;;;;;;5028724;28;20095;-46
2022/09/21 05:37:19;;;;;;;4.93;2.40;;;6.60;90.20;;;;;;5030194;28;20021;-47
2022/09/21 05:39:46;;;;;;;5.20;2.05;;;6.60;90.10;;;;;;5029424;28;20029;-45
2022/09/21 05:42:15;;;;;;;8.32;2.65;;;6.60;90.00;;;;;;5012092;28;20061;-44
2022/09/21 05:44:42;;;;;;;4.70;2.30;;;6.60;90.00;;;;;;5026745;28;20028;-45
2022/09/21 05:47:36;;;;;;;5.25;2.30;;;6.60;89.80;;;;;;5024493;28;20124;-47
2022/09/21 05:50:49;;;;;;;6.10;2.25;;;6.60;89.60;;;;;;5012060;28;20104;-44
2022/09/21 05:53:57;;;;;;;8.05;2.60;;;6.50;89.80;;;;;;4948721;29;20533;-47
2022/09/21 05:56:51;;;;;;;6.10;2.58;;;6.70;90.10;;;;;;4930256;29;20043;-48
2022/09/21 05:59:28;;;;;;;3.88;2.33;;;6.60;90.20;;;;;;4936008;29;20078;-45
2022/09/21 06:02:15;;;;;;;6.78;3.22;;;6.70;90.20;;;;;;4949500;29;20037;-48
2022/09/21 06:04:41;;;;;;;4.60;2.67;;;6.70;90.40;;;;;;4949233;29;20472;-45
2022/09/21 06:07:08;;;;;;;4.93;2.42;;;6.80;90.40;;;;;;4933421;29;20456;-45
2022/09/21 06:09:37;;;;;;;5.22;3.17;;;6.80;90.30;;;;;;4949320;29;20525;-45
2022/09/21 06:12:05;;;;;;;6.32;2.58;;;6.80;90.20;;;;;;4933365;29;20043;-44
2022/09/21 06:14:32;;;;;;;8.45;3.10;;;6.80;90.40;;;;;;4948477;29;20081;-45
2022/09/21 06:17:01;;;;;;;8.05;2.47;;;6.80;90.40;;;;;;4933192;29;20035;-44
2022/09/21 06:19:27;;;;;;;10.13;3.40;;;6.90;90.40;;;;;;4949196;29;20032;-47
2022/09/21 06:21:53;;;;;;;25.02;5.10;;;6.90;90.50;;;;;;4933292;29;20038;-44
2022/09/21 06:24:19;;;;;;;9.55;3.40;;;7.00;90.80;;;;;;4998432;28;20471;-45
2022/09/21 06:26:46;;;;;;;15.52;3.20;;;7.10;91.00;;;;;;5028869;28;20118;-47
2022/09/21 06:29:13;;;;;;;101.30;16.58;;;7.10;91.00;;;;;;5028112;28;20029;-47
2022/09/21 06:31:42;;;;;;;66.75;17.65;;;7.20;91.20;;;;;;5029222;28;20018;-45
2022/09/21 06:34:09;;;;;;;36.97;12.30;;;7.30;91.30;;;;;;5028922;28;20491;-45
2022/09/21 06:36:36;;;;;;;20.42;6.03;;;7.30;91.40;;;;;;5029408;28;20041;-49
2022/09/21 06:39:02;;;;;;;15.68;5.20;;;7.40;91.40;;;;;;5032591;28;20068;-47
2022/09/21 06:41:29;;;;;;;8.93;4.25;;;7.50;91.40;;;;;;5032842;28;20026;-47
2022/09/21 06:43:56;;;;;;;9.48;2.92;;;7.50;91.40;;;;;;5032131;28;20039;-48
2022/09/21 06:46:23;;;;;;;11.23;3.13;;;7.60;91.50;;;;;;5032681;28;20214;-45
2022/09/21 06:48:50;;;;;;;8.35;3.38;;;7.70;91.50;;;;;;5032527;28;20025;-46
2022/09/21 06:51:19;;;;;;;5.88;2.67;;;7.80;91.60;;;;;;5032016;28;20064;-47
2022/09/21 06:53:45;;;;;;;6.80;3.00;;;7.90;91.60;;;;;;5032427;28;20025;-46
2022/09/21 06:56:14;;;;;;;10.20;2.72;;;7.90;91.60;;;;;;5032123;28;20037;-46
2022/09/21 06:58:41;;;;;;;8.07;3.17;;;8.00;91.70;;;;;;5012969;28;20033;-45
2022/09/21 07:01:11;;;;;;;9.70;3.75;;;8.10;91.60;;;;;;5031125;28;20465;-44
2022/09/21 07:03:41;;;;;;;6.57;2.63;;;8.20;91.70;;;;;;5031880;28;20512;-46
2022/09/21 07:06:10;;;;;;;6.55;2.80;;;8.40;91.80;;;;;;5014255;28;20151;-44
2022/09/21 07:08:40;;;;;;;6.53;2.72;;;8.40;91.70;;;;;;5010966;28;20025;-45
2022/09/21 07:11:07;;;;;;;5.80;2.92;;;8.50;91.80;;;;;;5031064;28;20029;-46
2022/09/21 07:13:34;;;;;;;40.65;6.70;;;8.60;91.80;;;;;;5029538;28;20032;-46
2022/09/21 07:16:04;;;;;;;30.58;6.15;;;8.70;91.80;;;;;;5031926;28;20022;-45
2022/09/21 07:18:35;;;;;;;39.20;9.93;;;8.80;91.90;;;;;;5031015;28;20029;-47
2022/09/21 07:21:05;;;;;;;24.02;6.75;;;8.90;91.90;;;;;;5032140;28;20017;-45
2022/09/21 07:23:32;;;;;;;22.85;6.43;;;9.00;91.90;;;;;;5031944;28;20021;-46
2022/09/21 07:26:07;;;;;;;16.55;4.35;;;9.10;92.00;;;;;;5032037;28;20394;-47
2022/09/21 07:28:37;;;;;;;10.27;3.53;;;9.20;92.10;;;;;;5031858;28;20034;-48
2022/09/21 07:31:12;;;;;;;14.10;3.60;;;9.40;92.10;;;;;;5032220;28;20108;-45
2022/09/21 07:33:41;;;;;;;9.85;3.35;;;9.60;92.30;;;;;;5031773;28;20034;-46
2022/09/21 07:36:09;;;;;;;8.15;3.85;;;10.00;92.50;;;;;;5013797;28;20458;-45
2022/09/21 07:38:41;;;;;;;11.05;2.90;;;10.60;92.50;;;;;;5030268;28;20030;-46
2022/09/21 07:41:09;;;;;;;10.18;3.58;;;11.00;91.70;;;;;;5031506;28;20465;-46
2022/09/21 07:43:38;;;;;;;7.22;2.10;;;11.40;91.00;;;;;;5013156;28;20036;-45
2022/09/21 07:46:09;;;;;;;7.13;2.35;;;11.90;90.10;;;;;;5031174;28;20041;-45
2022/09/21 07:48:36;;;;;;;8.80;1.95;;;12.40;88.90;;;;;;5030292;28;20033;-46
2022/09/21 07:51:05;;;;;;;6.18;2.17;;;12.90;87.60;;;;;;5014289;28;20017;-47
2022/09/21 07:53:34;;;;;;;5.55;1.85;;;13.40;86.90;;;;;;5014170;28;20114;-44
2022/09/21 07:56:06;;;;;;;4.82;1.13;;;13.90;84.70;;;;;;5013776;28;20064;-45
2022/09/21 08:01:24;;;;;;;7.22;1.80;;;14.40;82.60;;;;;;5031763;28;20041;-48
2022/09/21 08:03:51;;;;;;;10.20;2.53;;;14.90;81.30;;;;;;5031520;28;20405;-49
2022/09/21 08:06:18;;;;;;;12.73;2.20;;;15.00;78.80;;;;;;5030949;28;20029;-47
2022/09/21 08:08:49;;;;;;;3.85;1.20;;;15.30;80.20;;;;;;5027616;28;20405;-51
2022/09/21 08:11:18;;;;;;;5.80;1.42;;;15.60;79.70;;;;;;5029610;28;20033;-47
2022/09/21 08:13:45;;;;;;;4.80;1.25;;;15.70;76.90;;;;;;5030369;28;20430;-47
2022/09/21 08:16:11;;;;;;;6.05;2.08;;;15.90;76.80;;;;;;5031042;28;20035;-50
2022/09/21 08:18:40;;;;;;;8.80;3.60;;;16.20;75.40;;;;;;5012569;28;20017;-47
2022/09/21 08:21:08;;;;;;;8.48;2.17;;;16.40;74.60;;;;;;5030733;28;20029;-48
2022/09/21 08:23:39;;;;;;;5.30;1.35;;;16.50;74.90;;;;;;5030888;28;20034;-47
2022/09/21 08:26:06;;;;;;;4.25;1.60;;;16.60;72.30;;;;;;5031065;28;20113;-50
2022/09/21 08:28:37;;;;;;;5.20;1.50;;;16.80;73.10;;;;;;5030011;28;20444;-46
2022/09/21 08:31:07;;;;;;;4.97;1.65;;;17.10;74.20;;;;;;5030832;28;20044;-48
2022/09/21 08:33:37;;;;;;;;;;;17.40;73.40;;;;;;5031068;28;20023;-49
2022/09/21 08:36:04;;;;;;;;;;;17.40;71.80;;;;;;5031116;28;19909;-49
2022/09/21 08:38:35;;;;;;;9.77;2.35;;;17.50;70.90;;;;;;5029961;28;19913;-47
2022/09/21 08:41:15;;;;;;;5.43;2.03;;;17.50;69.20;;;;;;5030754;28;20097;-46
2022/09/21 08:43:43;;;;;;;;;;;17.60;70.30;;;;;;5029259;28;20022;-46
2022/09/21 08:46:24;;;;;;;5.65;1.20;;;17.40;69.60;;;;;;5030402;28;20004;-48
2022/09/21 08:49:05;;;;;;;7.20;1.52;;;17.40;69.80;;;;;;5011581;28;20052;-46
2022/09/21 08:51:48;;;;;;;6.55;2.67;;;17.50;69.40;;;;;;5010693;28;20022;-50
2022/09/21 08:54:50;;;;;;;6.75;1.20;;;17.60;68.40;;;;;;5010534;28;20030;-46
2022/09/21 08:57:18;;;;;;;12.68;2.75;;;17.50;68.20;;;;;;5010363;28;20026;-46
2022/09/21 08:59:47;;;;;;;5.28;1.10;;;17.60;67.30;;;;;;5026354;28;20366;-46
2022/09/21 09:02:42;;;;;;;7.03;1.70;;;17.80;67.30;;;;;;5012065;28;20537;-47
2022/09/21 09:05:41;;;;;;;7.03;1.40;;;17.90;65.60;;;;;;5029440;28;20017;-47
2022/09/21 09:08:21;;;;;;;8.45;1.48;;;17.80;66.70;;;;;;5024483;28;20034;-47
2022/09/21 09:10:55;;;;;;;4.90;1.58;;;17.80;66.00;;;;;;5023172;28;20076;-46
2022/09/21 09:13:42;;;;;;;4.72;1.15;;;18.10;68.50;;;;;;5027345;28;20108;-46
2022/09/21 09:16:55;;;;;;;5.25;1.33;;;18.10;65.60;;;;;;5029420;28;20096;-46
2022/09/21 09:19:38;;;;;;;5.63;1.05;;;18.20;63.70;;;;;;4991278;28;20447;-46
2022/09/21 09:22:11;;;;;;;6.13;1.63;;;18.40;66.10;;;;;;5011647;28;20026;-48
2022/09/21 09:24:50;;;;;;;5.55;1.13;;;18.40;66.30;;;;;;5029300;28;20017;-46
2022/09/21 09:27:31;;;;;;;5.88;1.40;;;18.50;63.60;;;;;;5027627;28;20017;-48
2022/09/21 09:30:24;;;;;;;5.35;1.80;;;18.40;65.80;;;;;;5029378;28;20033;-48
2022/09/21 09:33:04;;;;;;;5.43;1.73;;;18.60;65.10;;;;;;5029481;28;20101;-49
2022/09/21 09:35:44;;;;;;;5.07;1.25;;;18.40;62.40;;;;;;5011962;28;20049;-47
2022/09/21 09:38:44;;;;;;;6.65;1.50;;;18.40;62.70;;;;;;5011214;28;20039;-46
2022/09/21 09:41:47;;;;;;;6.68;1.02;;;18.40;64.30;;;;;;5008996;28;20033;-50
2022/09/21 09:44:43;;;;;;;5.55;1.20;;;18.40;63.00;;;;;;5029113;28;20519;-45
2022/09/21 09:47:27;;;;;;;5.30;1.63;;;18.50;62.70;;;;;;5011979;28;20050;-46
2022/09/21 09:49:59;;;;;;;9.52;1.60;;;18.30;63.70;;;;;;5011701;28;20033;-46
2022/09/21 09:52:26;;;;;;;4.38;1.00;;;18.10;63.70;;;;;;5028177;28;20040;-46
2022/09/21 09:54:53;;;;;;;6.57;1.10;;;18.30;63.80;;;;;;5029182;28;20346;-48
2022/09/21 09:57:28;;;;;;;3.85;1.23;;;18.60;63.00;;;;;;5010722;28;20124;-46
2022/09/21 10:00:03;;;;;;;5.88;1.67;;;18.80;64.70;;;;;;5011984;28;20454;-47
2022/09/21 10:02:32;;;;;;;4.65;1.15;;;19.00;63.90;;;;;;4992519;28;20084;-46
2022/09/21 10:05:05;;;;;;;3.70;1.05;;;19.20;61.20;;;;;;5009666;28;20018;-45
2022/09/21 10:07:45;;;;;;;4.55;1.35;;;19.30;59.50;;;;;;5009618;28;20366;-45
2022/09/21 10:10:29;;;;;;;6.00;1.10;;;19.00;58.60;;;;;;5009535;28;20033;-46
2022/09/21 10:13:24;;;;;;;3.50;1.20;;;18.60;57.20;;;;;;5031248;28;20312;-47
2022/09/21 10:15:56;;;;;;;4.05;1.38;;;18.70;57.70;;;;;;5033078;28;20025;-47
2022/09/21 10:18:45;;;;;;;6.20;1.20;;;18.70;60.00;;;;;;5032813;28;20514;-46
2022/09/21 10:21:33;;;;;;;4.70;1.33;;;18.60;59.80;;;;;;5031389;28;20443;-46
2022/09/21 10:24:28;;;;;;;7.10;1.42;;;18.70;60.60;;;;;;5017224;28;20108;-46
2022/09/21 10:27:14;;;;;;;13.48;3.00;;;18.80;60.00;;;;;;5012728;28;20064;-48
2022/09/21 10:29:48;;;;;;;8.75;1.92;;;18.40;58.50;;;;;;5017558;28;20035;-49
2022/09/21 10:32:19;;;;;;;5.93;1.95;;;18.30;59.30;;;;;;5032846;28;20060;-46
2022/09/21 10:35:06;;;;;;;6.82;1.88;;;18.30;61.10;;;;;;5016173;28;20029;-46
2022/09/21 10:37:42;;;;;;;5.15;1.20;;;18.20;60.10;;;;;;5015522;28;20040;-47
2022/09/21 10:40:19;;;;;;;6.63;1.42;;;18.20;60.00;;;;;;5033073;28;20334;-48
2022/09/21 10:42:47;;;;;;;4.78;1.27;;;18.40;61.00;;;;;;5030394;28;20091;-50
2022/09/21 10:45:17;;;;;;;6.15;1.40;;;18.50;61.50;;;;;;5032761;28;20164;-45
2022/09/21 10:47:47;;;;;;;5.05;0.95;;;18.60;62.00;;;;;;5015379;28;20081;-46
2022/09/21 10:50:26;;;;;;;3.53;1.10;;;18.70;59.60;;;;;;5032623;28;20017;-50
2022/09/21 10:53:35;;;;;;;5.78;1.17;;;18.80;56.80;;;;;;5031990;28;20091;-46
2022/09/21 10:56:20;;;;;;;2.85;0.93;;;19.00;58.50;;;;;;5028864;28;20194;-49
2022/09/21 10:59:23;;;;;;;6.57;1.63;;;19.00;55.80;;;;;;5032556;28;20076;-46
2022/09/21 11:01:52;;;;;;;4.07;0.77;;;18.90;57.10;;;;;;5031299;28;20030;-46
2022/09/21 11:04:39;;;;;;;4.25;1.33;;;19.10;56.90;;;;;;5032257;28;20026;-48
2022/09/21 11:07:30;;;;;;;5.40;1.10;;;18.90;54.20;;;;;;5014765;28;20068;-48
2022/09/21 11:10:51;;;;;;;3.08;1.42;;;18.80;53.00;;;;;;5032260;28;20126;-47
2022/09/21 11:13:27;;;;;;;5.03;1.05;;;18.90;57.20;;;;;;4932487;29;20039;-48
2022/09/21 11:16:18;;;;;;;4.25;1.13;;;19.10;56.00;;;;;;5009123;28;20044;-46
2022/09/21 11:19:22;;;;;;;6.47;1.45;;;19.10;58.40;;;;;;5030968;28;20090;-51
2022/09/21 11:22:20;;;;;;;4.30;0.82;;;18.90;55.40;;;;;;5030767;28;20041;-48
2022/09/21 11:24:54;;;;;;;4.63;1.25;;;18.90;53.30;;;;;;5013513;28;20060;-49
2022/09/21 11:27:34;;;;;;;5.57;1.55;;;19.00;51.50;;;;;;5031123;28;20501;-49
2022/09/21 11:30:10;;;;;;;6.38;1.58;;;19.00;51.80;;;;;;5031914;28;20022;-48
2022/09/21 11:33:03;;;;;;;5.03;1.00;;;19.10;55.60;;;;;;5031003;28;20025;-46
2022/09/21 11:35:57;;;;;;;2.88;0.75;;;19.20;54.80;;;;;;5031947;28;20034;-47
2022/09/21 11:38:46;;;;;;;4.10;1.52;;;19.30;54.50;;;;;;5031425;28;20283;-47
2022/09/21 11:41:51;;;;;;;5.60;1.30;;;19.00;54.00;;;;;;5029518;28;20022;-49
2022/09/21 11:44:32;;;;;;;5.10;1.00;;;19.10;55.00;;;;;;5031769;28;20029;-46
2022/09/21 11:47:33;;;;;;;4.85;0.98;;;19.00;51.90;;;;;;5014011;28;20056;-46
2022/09/21 11:50:31;;;;;;;2.80;0.75;;;18.90;50.40;;;;;;4999432;28;20033;-45
2022/09/21 11:53:21;;;;;;;2.08;0.80;;;18.90;51.30;;;;;;5012026;28;20092;-49
2022/09/21 11:56:05;;;;;;;;;;;18.80;51.60;;;;;;5032157;28;20040;-50
2022/09/21 11:58:37;;;;;;;5.93;1.42;;;18.80;51.90;;;;;;5010604;28;19914;-45
2022/09/21 12:01:47;;;;;;;10.25;1.27;;;18.70;52.90;;;;;;4995799;28;20068;-51
2022/09/21 12:04:34;;;;;;;5.22;1.35;;;18.90;53.30;;;;;;5031126;28;20413;-46
2022/09/21 12:07:02;;;;;;;4.15;0.98;;;19.00;51.60;;;;;;5030889;28;20525;-48
2022/09/21 12:10:00;;;;;;;5.82;1.20;;;18.90;51.50;;;;;;5013834;28;20508;-46
2022/09/21 12:12:53;;;;;;;6.45;1.63;;;18.90;53.00;;;;;;5030319;28;20052;-46
2022/09/21 12:15:32;;;;;;;5.25;1.17;;;18.40;54.20;;;;;;5030618;28;20494;-44
2022/09/21 12:18:26;;;;;;;4.18;1.15;;;17.90;54.00;;;;;;5013572;28;20029;-47
2022/09/21 12:21:14;;;;;;;3.95;0.80;;;17.60;56.70;;;;;;5013809;28;20051;-47
2022/09/21 12:23:48;;;;;;;3.35;0.75;;;17.40;56.50;;;;;;5011412;28;20044;-50
2022/09/21 12:26:26;;;;;;;3.97;0.80;;;17.20;57.00;;;;;;5009889;28;20438;-46
2022/09/21 12:29:01;;;;;;;5.25;0.93;;;17.10;56.10;;;;;;5014063;28;20413;-46
2022/09/21 12:31:51;;;;;;;2.92;0.85;;;17.00;58.00;;;;;;5012724;28;20454;-46
2022/09/21 12:34:23;;;;;;;4.13;0.90;;;16.90;59.40;;;;;;5003351;28;20052;-47
2022/09/21 12:37:08;;;;;;;4.35;1.40;;;17.00;59.00;;;;;;5030309;28;20029;-46
2022/09/21 12:39:47;;;;;;;4.40;1.10;;;17.20;57.30;;;;;;5030524;28;20029;-47
2022/09/21 12:42:21;;;;;;;;;;;17.50;57.80;;;;;;5029049;28;20442;-46
2022/09/21 12:45:05;;;;;;;4.47;0.80;;;17.70;55.50;;;;;;5030824;28;19915;-47
2022/09/21 12:48:04;;;;;;;4.75;1.00;;;17.80;56.60;;;;;;5013001;28;20053;-46
2022/09/21 12:50:53;;;;;;;3.15;0.73;;;17.80;54.30;;;;;;5030890;28;20029;-49
2022/09/21 12:53:27;;;;;;;5.45;1.73;;;17.50;55.00;;;;;;5029677;28;20354;-45
2022/09/21 12:56:15;;;;;;;4.43;0.93;;;17.40;54.90;;;;;;5030567;28;20172;-45
2022/09/21 12:59:01;;;;;;;4.93;0.93;;;17.40;55.60;;;;;;5029595;28;20041;-45
2022/09/21 13:01:48;;;;;;;4.97;0.77;;;17.30;57.40;;;;;;5012693;28;20032;-49
2022/09/21 13:04:42;;;;;;;8.38;1.42;;;17.10;56.30;;;;;;5030284;28;20032;-46
2022/09/21 13:07:43;;;;;;;2.92;0.75;;;17.10;57.20;;;;;;5028366;28;20408;-46
2022/09/21 13:10:45;;;;;;;5.65;1.23;;;17.10;56.70;;;;;;5030650;28;20419;-48
2022/09/21 13:13:28;;;;;;;3.20;1.00;;;17.10;55.30;;;;;;5005879;28;20076;-48
2022/09/21 13:15:58;;;;;;;3.83;1.00;;;17.20;57.80;;;;;;5029771;28;20060;-47
2022/09/21 13:18:36;;;;;;;4.72;0.90;;;17.20;58.30;;;;;;5029792;28;20084;-46
2022/09/21 13:21:23;;;;;;;3.35;0.75;;;17.20;56.00;;;;;;5029717;28;20115;-47
2022/09/21 13:23:57;;;;;;;4.15;0.85;;;17.20;57.80;;;;;;5020375;28;20033;-47
2022/09/21 13:26:43;;;;;;;5.68;1.17;;;17.20;57.20;;;;;;5011535;28;20056;-45
2022/09/21 13:29:25;;;;;;;2.90;0.70;;;17.10;56.00;;;;;;5026427;28;20037;-47
2022/09/21 13:32:02;;;;;;;3.75;0.80;;;17.00;55.10;;;;;;5028959;28;20025;-47
2022/09/21 13:34:44;;;;;;;3.47;1.30;;;17.10;55.90;;;;;;5011750;28;20029;-46
2022/09/21 13:37:27;;;;;;;7.07;1.75;;;17.00;54.80;;;;;;4994739;28;20033;-47
2022/09/21 13:40:08;;;;;;;2.80;1.08;;;16.90;55.20;;;;;;5029445;28;20095;-46
2022/09/21 13:42:37;;;;;;;2.90;0.70;;;16.90;56.80;;;;;;5028646;28;20355;-47
2022/09/21 13:45:17;;;;;;;5.13;1.13;;;16.90;55.80;;;;;;5029888;28;20056;-47
2022/09/21 13:47:49;;;;;;;3.75;1.20;;;16.90;55.30;;;;;;5010671;28;20530;-45